sensor_id;sensor_type;location;lat;lon;timestamp;pressure;altitude;pressure_sealevel;temperature;humidity
64086;BME280;50333;47.436;21.390;2022-08-01T00:01:14;100296.81;;;20.63;69.25
64086;BME280;50333;47.436;21.390;2022-08-01T00:03:42;100289.44;;;20.81;68.57
64086;BME280;50333;47.436;21.390;2022-08-01T00:06:10;100296.94;;;21.04;67.62
64086;BME280;50333;47.436;21.390;2022-08-01T00:08:38;100303.34;;;20.90;67.99
64086;BME280;50333;47.436;21.390;2022-08-01T00:11:06;100301.78;;;21.02;67.56
64086;BME280;50333;47.436;21.390;2022-08-01T00:13:33;100308.19;;;21.01;67.35
64086;BME280;50333;47.436;21.390;2022-08-01T00:16:01;100303.88;;;21.08;67.23
64086;BME280;50333;47.436;21.390;2022-08-01T00:18:29;100304.31;;;20.98;67.35
64086;BME280;50333;47.436;21.390;2022-08-01T00:20:57;100302.78;;;20.97;67.42
64086;BME280;50333;47.436;21.390;2022-08-01T00:23:25;100302.56;;;21.02;67.33
64086;BME280;50333;47.436;21.390;2022-08-01T00:25:53;100299.53;;;21.28;66.27
64086;BME280;50333;47.436;21.390;2022-08-01T00:28:21;100292.75;;;21.43;66.10
64086;BME280;50333;47.436;21.390;2022-08-01T00:30:48;100298.13;;;21.19;66.89
64086;BME280;50333;47.436;21.390;2022-08-01T00:33:16;100306.50;;;21.21;66.97
64086;BME280;50333;47.436;21.390;2022-08-01T00:35:45;100300.22;;;21.13;67.39
64086;BME280;50333;47.436;21.390;2022-08-01T00:38:12;100300.66;;;21.27;67.12
64086;BME280;50333;47.436;21.390;2022-08-01T00:40:41;100305.72;;;21.33;67.16
64086;BME280;50333;47.436;21.390;2022-08-01T00:43:09;100303.16;;;21.36;67.38
64086;BME280;50333;47.436;21.390;2022-08-01T00:45:36;100293.50;;;20.91;68.26
64086;BME280;50333;47.436;21.390;2022-08-01T00:48:05;100297.25;;;21.15;68.17
64086;BME280;50333;47.436;21.390;2022-08-01T00:50:33;100292.13;;;21.46;67.01
64086;BME280;50333;47.436;21.390;2022-08-01T00:53:01;100300.88;;;21.22;67.92
64086;BME280;50333;47.436;21.390;2022-08-01T00:55:30;100299.66;;;20.95;69.06
64086;BME280;50333;47.436;21.390;2022-08-01T00:57:59;100304.97;;;21.20;67.86
64086;BME280;50333;47.436;21.390;2022-08-01T01:00:34;100295.28;;;20.62;69.28
64086;BME280;50333;47.436;21.390;2022-08-01T01:03:22;100301.44;;;20.91;68.50
64086;BME280;50333;47.436;21.390;2022-08-01T01:12:24;100278.41;;;21.57;66.42
64086;BME280;50333;47.436;21.390;2022-08-01T01:15:13;100287.38;;;21.27;67.25
64086;BME280;50333;47.436;21.390;2022-08-01T01:17:47;100285.53;;;21.03;68.19
64086;BME280;50333;47.436;21.390;2022-08-01T01:20:21;100292.06;;;21.18;67.99
64086;BME280;50333;47.436;21.390;2022-08-01T01:28:40;100294.37;;;21.07;69.12
64086;BME280;50333;47.436;21.390;2022-08-01T01:31:11;100294.28;;;21.04;69.46
64086;BME280;50333;47.436;21.390;2022-08-01T01:33:41;100296.66;;;21.34;68.41
64086;BME280;50333;47.436;21.390;2022-08-01T01:36:14;100294.16;;;21.25;68.50
64086;BME280;50333;47.436;21.390;2022-08-01T01:38:45;100291.78;;;21.36;68.10
64086;BME280;50333;47.436;21.390;2022-08-01T01:41:15;100296.09;;;21.53;67.45
64086;BME280;50333;47.436;21.390;2022-08-01T01:43:46;100287.34;;;21.52;67.66
64086;BME280;50333;47.436;21.390;2022-08-01T01:46:17;100290.91;;;21.56;67.77
64086;BME280;50333;47.436;21.390;2022-08-01T01:48:47;100288.00;;;21.61;67.22
64086;BME280;50333;47.436;21.390;2022-08-01T01:51:16;100294.78;;;21.34;68.60
64086;BME280;50333;47.436;21.390;2022-08-01T01:53:45;100295.09;;;21.45;68.27
64086;BME280;50333;47.436;21.390;2022-08-01T01:56:16;100297.31;;;21.43;68.26
64086;BME280;50333;47.436;21.390;2022-08-01T01:58:53;100304.94;;;21.44;68.40
64086;BME280;50333;47.436;21.390;2022-08-01T02:01:25;100306.06;;;21.19;69.12
64086;BME280;50333;47.436;21.390;2022-08-01T02:04:15;100306.25;;;21.38;68.60
64086;BME280;50333;47.436;21.390;2022-08-01T02:06:46;100307.56;;;21.57;67.82
64086;BME280;50333;47.436;21.390;2022-08-01T02:09:15;100298.72;;;21.65;67.47
64086;BME280;50333;47.436;21.390;2022-08-01T02:11:47;100312.88;;;21.57;67.88
64086;BME280;50333;47.436;21.390;2022-08-01T02:14:35;100314.22;;;21.51;68.07
64086;BME280;50333;47.436;21.390;2022-08-01T02:17:04;100320.88;;;21.32;68.61
64086;BME280;50333;47.436;21.390;2022-08-01T02:19:34;100320.19;;;21.23;68.77
64086;BME280;50333;47.436;21.390;2022-08-01T02:22:11;100320.88;;;20.95;70.02
64086;BME280;50333;47.436;21.390;2022-08-01T02:25:19;100330.81;;;20.98;70.16
64086;BME280;50333;47.436;21.390;2022-08-01T02:30:25;100328.59;;;21.00;70.45
64086;BME280;50333;47.436;21.390;2022-08-01T02:33:02;100327.72;;;20.96;70.86
64086;BME280;50333;47.436;21.390;2022-08-01T02:35:32;100320.00;;;21.03;70.18
64086;BME280;50333;47.436;21.390;2022-08-01T02:38:22;100323.31;;;21.00;70.33
64086;BME280;50333;47.436;21.390;2022-08-01T02:40:52;100325.63;;;20.77;71.28
64086;BME280;50333;47.436;21.390;2022-08-01T02:43:24;100320.09;;;20.95;70.39
64086;BME280;50333;47.436;21.390;2022-08-01T02:45:56;100321.87;;;21.15;69.89
64086;BME280;50333;47.436;21.390;2022-08-01T02:48:26;100322.44;;;20.84;70.78
64086;BME280;50333;47.436;21.390;2022-08-01T02:50:58;100314.59;;;21.00;70.24
64086;BME280;50333;47.436;21.390;2022-08-01T02:53:31;100322.97;;;20.77;70.86
64086;BME280;50333;47.436;21.390;2022-08-01T02:56:12;100309.34;;;20.54;72.19
64086;BME280;50333;47.436;21.390;2022-08-01T02:58:41;100293.97;;;19.89;75.10
64086;BME280;50333;47.436;21.390;2022-08-01T03:01:11;100289.25;;;19.74;75.80
64086;BME280;50333;47.436;21.390;2022-08-01T03:03:41;100279.88;;;19.97;75.34
64086;BME280;50333;47.436;21.390;2022-08-01T03:06:09;100278.94;;;20.73;72.48
64086;BME280;50333;47.436;21.390;2022-08-01T03:08:38;100289.75;;;20.92;71.33
64086;BME280;50333;47.436;21.390;2022-08-01T03:11:07;100295.06;;;20.92;71.83
64086;BME280;50333;47.436;21.390;2022-08-01T03:13:36;100297.81;;;21.08;70.88
64086;BME280;50333;47.436;21.390;2022-08-01T03:16:05;100293.28;;;20.96;71.19
64086;BME280;50333;47.436;21.390;2022-08-01T03:18:35;100290.84;;;21.03;70.75
64086;BME280;50333;47.436;21.390;2022-08-01T03:21:06;100293.47;;;21.16;69.97
64086;BME280;50333;47.436;21.390;2022-08-01T03:23:36;100289.16;;;21.36;69.42
64086;BME280;50333;47.436;21.390;2022-08-01T03:26:05;100305.84;;;21.12;70.28
64086;BME280;50333;47.436;21.390;2022-08-01T03:28:35;100310.47;;;20.65;72.18
64086;BME280;50333;47.436;21.390;2022-08-01T03:31:04;100315.72;;;20.99;70.70
64086;BME280;50333;47.436;21.390;2022-08-01T03:33:32;100311.84;;;20.96;71.17
64086;BME280;50333;47.436;21.390;2022-08-01T03:36:02;100320.00;;;20.79;72.42
64086;BME280;50333;47.436;21.390;2022-08-01T03:38:32;100319.56;;;20.77;72.57
64086;BME280;50333;47.436;21.390;2022-08-01T03:41:11;100327.78;;;20.50;73.24
64086;BME280;50333;47.436;21.390;2022-08-01T03:43:45;100316.91;;;21.01;70.97
64086;BME280;50333;47.436;21.390;2022-08-01T03:46:19;100324.44;;;20.99;70.25
64086;BME280;50333;47.436;21.390;2022-08-01T03:48:52;100319.16;;;20.41;72.53
64086;BME280;50333;47.436;21.390;2022-08-01T03:51:22;100316.91;;;20.64;72.30
64086;BME280;50333;47.436;21.390;2022-08-01T03:53:51;100331.34;;;20.21;74.47
64086;BME280;50333;47.436;21.390;2022-08-01T03:56:23;100323.97;;;19.93;75.39
64086;BME280;50333;47.436;21.390;2022-08-01T03:58:51;100327.63;;;19.80;76.23
64086;BME280;50333;47.436;21.390;2022-08-01T04:01:21;100309.56;;;20.49;73.80
64086;BME280;50333;47.436;21.390;2022-08-01T04:03:49;100307.28;;;20.72;73.05
64086;BME280;50333;47.436;21.390;2022-08-01T04:06:17;100293.75;;;19.52;77.94
64086;BME280;50333;47.436;21.390;2022-08-01T04:08:45;100292.41;;;19.46;78.45
64086;BME280;50333;47.436;21.390;2022-08-01T04:11:25;100293.41;;;19.33;79.16
64086;BME280;50333;47.436;21.390;2022-08-01T04:13:54;100300.34;;;20.22;74.58
64086;BME280;50333;47.436;21.390;2022-08-01T04:16:24;100304.28;;;20.49;73.27
64086;BME280;50333;47.436;21.390;2022-08-01T04:18:52;100301.56;;;20.24;73.06
64086;BME280;50333;47.436;21.390;2022-08-01T04:21:25;100305.75;;;19.92;74.70
64086;BME280;50333;47.436;21.390;2022-08-01T04:23:58;100313.38;;;19.72;75.95
64086;BME280;50333;47.436;21.390;2022-08-01T04:26:27;100318.41;;;19.65;76.48
64086;BME280;50333;47.436;21.390;2022-08-01T04:28:56;100319.50;;;20.40;73.37
64086;BME280;50333;47.436;21.390;2022-08-01T04:31:25;100316.16;;;20.43;72.45
64086;BME280;50333;47.436;21.390;2022-08-01T04:33:54;100319.00;;;20.25;73.04
64086;BME280;50333;47.436;21.390;2022-08-01T04:36:24;100321.09;;;20.78;70.70
64086;BME280;50333;47.436;21.390;2022-08-01T04:38:59;100318.34;;;20.86;69.21
64086;BME280;50333;47.436;21.390;2022-08-01T04:41:30;100316.59;;;20.78;67.83
64086;BME280;50333;47.436;21.390;2022-08-01T04:43:59;100320.59;;;20.51;68.85
64086;BME280;50333;47.436;21.390;2022-08-01T04:46:28;100320.22;;;20.86;67.62
64086;BME280;50333;47.436;21.390;2022-08-01T04:48:56;100317.34;;;20.79;67.83
64086;BME280;50333;47.436;21.390;2022-08-01T04:51:24;100318.91;;;20.80;67.98
64086;BME280;50333;47.436;21.390;2022-08-01T04:53:52;100316.25;;;20.67;68.99
64086;BME280;50333;47.436;21.390;2022-08-01T04:56:20;100310.66;;;20.60;69.50
64086;BME280;50333;47.436;21.390;2022-08-01T04:58:48;100312.16;;;20.95;68.07
64086;BME280;50333;47.436;21.390;2022-08-01T05:01:49;100308.09;;;20.97;67.34
64086;BME280;50333;47.436;21.390;2022-08-01T05:04:18;100309.81;;;21.05;66.44
64086;BME280;50333;47.436;21.390;2022-08-01T05:06:46;100308.50;;;21.24;65.18
64086;BME280;50333;47.436;21.390;2022-08-01T05:09:13;100301.19;;;21.21;65.57
64086;BME280;50333;47.436;21.390;2022-08-01T05:11:41;100312.25;;;21.23;65.99
64086;BME280;50333;47.436;21.390;2022-08-01T05:14:09;100300.50;;;21.36;64.66
64086;BME280;50333;47.436;21.390;2022-08-01T05:16:38;100293.25;;;21.08;64.73
64086;BME280;50333;47.436;21.390;2022-08-01T05:19:05;100277.91;;;21.02;65.28
64086;BME280;50333;47.436;21.390;2022-08-01T05:21:36;100281.25;;;21.11;64.57
64086;BME280;50333;47.436;21.390;2022-08-01T05:24:05;100286.06;;;21.09;64.05
64086;BME280;50333;47.436;21.390;2022-08-01T05:26:33;100288.37;;;21.23;63.43
64086;BME280;50333;47.436;21.390;2022-08-01T05:29:03;100273.50;;;21.06;63.84
64086;BME280;50333;47.436;21.390;2022-08-01T05:31:31;100282.72;;;21.37;63.57
64086;BME280;50333;47.436;21.390;2022-08-01T05:34:01;100285.94;;;21.42;63.63
64086;BME280;50333;47.436;21.390;2022-08-01T05:36:29;100287.41;;;21.68;63.05
64086;BME280;50333;47.436;21.390;2022-08-01T05:38:57;100291.16;;;21.95;61.96
64086;BME280;50333;47.436;21.390;2022-08-01T05:41:25;100295.78;;;21.82;61.82
64086;BME280;50333;47.436;21.390;2022-08-01T05:43:53;100293.31;;;21.61;62.61
64086;BME280;50333;47.436;21.390;2022-08-01T05:46:20;100293.88;;;21.55;63.02
64086;BME280;50333;47.436;21.390;2022-08-01T05:48:52;100292.28;;;21.94;61.85
64086;BME280;50333;47.436;21.390;2022-08-01T05:51:20;100297.50;;;21.91;61.84
64086;BME280;50333;47.436;21.390;2022-08-01T05:53:48;100299.72;;;21.89;61.59
64086;BME280;50333;47.436;21.390;2022-08-01T05:56:16;100301.63;;;22.04;61.69
64086;BME280;50333;47.436;21.390;2022-08-01T05:58:44;100308.81;;;21.88;61.66
64086;BME280;50333;47.436;21.390;2022-08-01T06:01:11;100309.41;;;21.97;60.90
64086;BME280;50333;47.436;21.390;2022-08-01T06:03:39;100311.63;;;21.95;60.41
64086;BME280;50333;47.436;21.390;2022-08-01T06:06:07;100313.25;;;21.99;61.19
64086;BME280;50333;47.436;21.390;2022-08-01T06:08:35;100316.00;;;22.03;61.21
64086;BME280;50333;47.436;21.390;2022-08-01T06:11:03;100313.88;;;21.93;61.40
64086;BME280;50333;47.436;21.390;2022-08-01T06:13:31;100322.19;;;22.07;61.30
64086;BME280;50333;47.436;21.390;2022-08-01T06:16:11;100327.34;;;22.16;59.84
64086;BME280;50333;47.436;21.390;2022-08-01T06:18:39;100333.44;;;22.16;59.78
64086;BME280;50333;47.436;21.390;2022-08-01T06:21:06;100331.09;;;21.99;59.44
64086;BME280;50333;47.436;21.390;2022-08-01T06:23:35;100332.50;;;22.09;59.83
64086;BME280;50333;47.436;21.390;2022-08-01T06:26:02;100338.75;;;22.16;59.68
64086;BME280;50333;47.436;21.390;2022-08-01T06:28:30;100336.00;;;22.13;59.52
64086;BME280;50333;47.436;21.390;2022-08-01T06:30:58;100340.25;;;22.30;59.06
64086;BME280;50333;47.436;21.390;2022-08-01T06:33:27;100351.50;;;22.11;59.54
64086;BME280;50333;47.436;21.390;2022-08-01T06:35:54;100349.00;;;22.02;60.22
64086;BME280;50333;47.436;21.390;2022-08-01T06:38:22;100348.50;;;22.12;60.08
64086;BME280;50333;47.436;21.390;2022-08-01T06:40:52;100351.88;;;21.97;60.58
64086;BME280;50333;47.436;21.390;2022-08-01T06:43:19;100353.19;;;22.03;59.95
64086;BME280;50333;47.436;21.390;2022-08-01T06:45:49;100354.06;;;22.07;60.29
64086;BME280;50333;47.436;21.390;2022-08-01T06:48:17;100353.28;;;21.78;60.91
64086;BME280;50333;47.436;21.390;2022-08-01T06:50:44;100362.22;;;21.86;61.24
64086;BME280;50333;47.436;21.390;2022-08-01T06:53:12;100346.91;;;21.67;61.40
64086;BME280;50333;47.436;21.390;2022-08-01T06:55:40;100351.34;;;21.51;61.97
64086;BME280;50333;47.436;21.390;2022-08-01T06:58:08;100350.03;;;21.32;61.73
64086;BME280;50333;47.436;21.390;2022-08-01T07:00:36;100352.75;;;22.01;60.02
64086;BME280;50333;47.436;21.390;2022-08-01T07:03:04;100346.91;;;21.95;60.29
64086;BME280;50333;47.436;21.390;2022-08-01T07:05:31;100358.34;;;21.83;60.55
64086;BME280;50333;47.436;21.390;2022-08-01T07:08:00;100349.56;;;21.42;61.92
64086;BME280;50333;47.436;21.390;2022-08-01T07:10:28;100362.37;;;21.65;61.27
64086;BME280;50333;47.436;21.390;2022-08-01T07:12:55;100360.56;;;22.10;60.07
64086;BME280;50333;47.436;21.390;2022-08-01T07:15:23;100362.78;;;22.08;60.29
64086;BME280;50333;47.436;21.390;2022-08-01T07:17:54;100355.53;;;22.20;59.88
64086;BME280;50333;47.436;21.390;2022-08-01T07:20:22;100370.53;;;21.72;61.15
64086;BME280;50333;47.436;21.390;2022-08-01T07:22:50;100362.50;;;21.97;60.54
64086;BME280;50333;47.436;21.390;2022-08-01T07:25:17;100366.94;;;22.21;60.15
64086;BME280;50333;47.436;21.390;2022-08-01T07:27:45;100365.87;;;22.38;59.78
64086;BME280;50333;47.436;21.390;2022-08-01T07:30:14;100368.09;;;22.36;59.54
64086;BME280;50333;47.436;21.390;2022-08-01T07:32:41;100373.56;;;22.55;59.42
64086;BME280;50333;47.436;21.390;2022-08-01T07:35:09;100373.88;;;22.26;60.59
64086;BME280;50333;47.436;21.390;2022-08-01T07:37:38;100372.94;;;21.90;61.73
64086;BME280;50333;47.436;21.390;2022-08-01T07:40:17;100377.97;;;22.35;60.63
64086;BME280;50333;47.436;21.390;2022-08-01T07:42:46;100374.97;;;22.37;60.87
64086;BME280;50333;47.436;21.390;2022-08-01T07:45:13;100386.44;;;22.41;60.72
64086;BME280;50333;47.436;21.390;2022-08-01T07:47:42;100377.88;;;22.32;61.33
64086;BME280;50333;47.436;21.390;2022-08-01T07:50:10;100389.72;;;21.94;62.30
64086;BME280;50333;47.436;21.390;2022-08-01T07:52:40;100375.81;;;22.13;61.62
64086;BME280;50333;47.436;21.390;2022-08-01T07:55:09;100381.06;;;22.37;61.01
64086;BME280;50333;47.436;21.390;2022-08-01T07:57:38;100381.31;;;22.48;60.85
64086;BME280;50333;47.436;21.390;2022-08-01T08:00:06;100378.22;;;22.46;60.71
64086;BME280;50333;47.436;21.390;2022-08-01T08:02:36;100384.28;;;22.31;61.23
64086;BME280;50333;47.436;21.390;2022-08-01T08:05:04;100386.50;;;22.29;61.27
64086;BME280;50333;47.436;21.390;2022-08-01T08:07:33;100386.53;;;22.16;61.61
64086;BME280;50333;47.436;21.390;2022-08-01T08:10:03;100394.66;;;22.36;61.40
64086;BME280;50333;47.436;21.390;2022-08-01T08:12:32;100392.09;;;22.39;61.09
64086;BME280;50333;47.436;21.390;2022-08-01T08:15:00;100384.22;;;22.43;60.70
64086;BME280;50333;47.436;21.390;2022-08-01T08:17:30;100395.56;;;22.40;60.88
64086;BME280;50333;47.436;21.390;2022-08-01T08:20:04;100386.53;;;22.45;60.23
64086;BME280;50333;47.436;21.390;2022-08-01T08:22:37;100391.53;;;22.78;59.57
64086;BME280;50333;47.436;21.390;2022-08-01T08:25:06;100391.38;;;22.87;59.32
64086;BME280;50333;47.436;21.390;2022-08-01T08:27:35;100385.63;;;22.69;59.67
64086;BME280;50333;47.436;21.390;2022-08-01T08:30:06;100387.19;;;22.70;59.07
64086;BME280;50333;47.436;21.390;2022-08-01T08:32:35;100386.31;;;22.66;59.01
64086;BME280;50333;47.436;21.390;2022-08-01T08:35:04;100392.84;;;23.16;58.63
64086;BME280;50333;47.436;21.390;2022-08-01T08:37:36;100393.66;;;23.17;58.24
64086;BME280;50333;47.436;21.390;2022-08-01T08:40:14;100396.31;;;23.17;57.19
64086;BME280;50333;47.436;21.390;2022-08-01T08:42:44;100401.56;;;23.01;57.34
64086;BME280;50333;47.436;21.390;2022-08-01T08:45:13;100402.66;;;23.12;57.56
64086;BME280;50333;47.436;21.390;2022-08-01T08:47:41;100405.53;;;23.23;57.59
64086;BME280;50333;47.436;21.390;2022-08-01T08:50:11;100399.56;;;23.10;57.40
64086;BME280;50333;47.436;21.390;2022-08-01T08:52:39;100396.56;;;23.11;57.35
64086;BME280;50333;47.436;21.390;2022-08-01T08:55:08;100407.19;;;23.27;57.13
64086;BME280;50333;47.436;21.390;2022-08-01T08:57:39;100399.50;;;23.42;56.31
64086;BME280;50333;47.436;21.390;2022-08-01T09:00:08;100402.38;;;23.17;56.91
64086;BME280;50333;47.436;21.390;2022-08-01T09:02:43;100402.53;;;23.24;56.05
64086;BME280;50333;47.436;21.390;2022-08-01T09:05:12;100403.37;;;23.28;55.65
64086;BME280;50333;47.436;21.390;2022-08-01T09:07:46;100408.12;;;22.87;56.83
64086;BME280;50333;47.436;21.390;2022-08-01T09:10:14;100404.34;;;23.20;56.42
64086;BME280;50333;47.436;21.390;2022-08-01T09:13:03;100404.00;;;23.06;56.34
64086;BME280;50333;47.436;21.390;2022-08-01T09:15:43;100403.91;;;23.34;56.22
64086;BME280;50333;47.436;21.390;2022-08-01T09:18:34;100405.06;;;23.52;55.03
64086;BME280;50333;47.436;21.390;2022-08-01T09:23:35;100406.22;;;23.36;56.01
64086;BME280;50333;47.436;21.390;2022-08-01T09:26:31;100405.31;;;23.47;54.95
64086;BME280;50333;47.436;21.390;2022-08-01T09:29:04;100401.34;;;23.22;56.40
64086;BME280;50333;47.436;21.390;2022-08-01T09:31:43;100404.09;;;23.25;56.13
64086;BME280;50333;47.436;21.390;2022-08-01T09:34:16;100408.12;;;23.19;56.56
64086;BME280;50333;47.436;21.390;2022-08-01T09:36:51;100406.16;;;23.67;55.54
64086;BME280;50333;47.436;21.390;2022-08-01T09:39:26;100411.09;;;23.33;56.07
64086;BME280;50333;47.436;21.390;2022-08-01T09:41:55;100404.00;;;23.38;55.71
64086;BME280;50333;47.436;21.390;2022-08-01T09:47:12;100409.50;;;23.64;53.74
64086;BME280;50333;47.436;21.390;2022-08-01T09:49:43;100412.38;;;23.75;53.73
64086;BME280;50333;47.436;21.390;2022-08-01T09:52:21;100406.53;;;23.85;53.67
64086;BME280;50333;47.436;21.390;2022-08-01T09:54:59;100405.53;;;23.74;54.73
64086;BME280;50333;47.436;21.390;2022-08-01T09:57:28;100403.47;;;23.67;53.84
64086;BME280;50333;47.436;21.390;2022-08-01T09:59:59;100397.19;;;23.76;54.02
64086;BME280;50333;47.436;21.390;2022-08-01T10:02:39;100406.87;;;24.03;53.36
64086;BME280;50333;47.436;21.390;2022-08-01T10:05:10;100404.34;;;23.91;53.48
64086;BME280;50333;47.436;21.390;2022-08-01T10:07:59;100404.88;;;23.97;53.58
64086;BME280;50333;47.436;21.390;2022-08-01T10:10:27;100407.09;;;23.59;55.34
64086;BME280;50333;47.436;21.390;2022-08-01T10:12:58;100413.22;;;23.44;55.80
64086;BME280;50333;47.436;21.390;2022-08-01T10:15:27;100411.06;;;23.49;55.62
64086;BME280;50333;47.436;21.390;2022-08-01T10:18:07;100414.09;;;23.48;56.34
64086;BME280;50333;47.436;21.390;2022-08-01T10:20:53;100406.97;;;23.71;55.36
64086;BME280;50333;47.436;21.390;2022-08-01T10:23:26;100402.87;;;23.58;54.83
64086;BME280;50333;47.436;21.390;2022-08-01T10:26:08;100402.75;;;23.86;53.88
64086;BME280;50333;47.436;21.390;2022-08-01T10:28:37;100401.97;;;24.25;53.59
64086;BME280;50333;47.436;21.390;2022-08-01T10:31:09;100403.00;;;24.82;52.44
64086;BME280;50333;47.436;21.390;2022-08-01T10:33:41;100400.34;;;24.59;51.14
64086;BME280;50333;47.436;21.390;2022-08-01T10:36:20;100399.91;;;24.57;51.68
64086;BME280;50333;47.436;21.390;2022-08-01T10:38:49;100396.47;;;25.03;49.80
64086;BME280;50333;47.436;21.390;2022-08-01T10:41:18;100392.22;;;25.25;50.23
64086;BME280;50333;47.436;21.390;2022-08-01T10:43:46;100394.78;;;25.45;49.65
64086;BME280;50333;47.436;21.390;2022-08-01T10:46:15;100398.03;;;25.61;49.16
64086;BME280;50333;47.436;21.390;2022-08-01T10:49:04;100396.06;;;25.54;48.86
64086;BME280;50333;47.436;21.390;2022-08-01T10:51:37;100399.84;;;25.84;48.58
64086;BME280;50333;47.436;21.390;2022-08-01T10:54:24;100401.31;;;26.08;47.45
64086;BME280;50333;47.436;21.390;2022-08-01T10:56:53;100398.31;;;26.13;46.03
64086;BME280;50333;47.436;21.390;2022-08-01T10:59:24;100398.62;;;26.08;44.80
64086;BME280;50333;47.436;21.390;2022-08-01T11:02:26;100396.09;;;26.22;46.16
64086;BME280;50333;47.436;21.390;2022-08-01T11:05:06;100392.00;;;26.32;45.55
64086;BME280;50333;47.436;21.390;2022-08-01T11:07:56;100395.22;;;26.52;44.95
64086;BME280;50333;47.436;21.390;2022-08-01T11:10:37;100381.88;;;26.52;44.99
64086;BME280;50333;47.436;21.390;2022-08-01T11:13:06;100382.94;;;26.44;45.56
64086;BME280;50333;47.436;21.390;2022-08-01T11:15:36;100381.53;;;26.57;45.51
64086;BME280;50333;47.436;21.390;2022-08-01T11:20:59;100372.47;;;26.65;45.80
64086;BME280;50333;47.436;21.390;2022-08-01T11:23:49;100369.31;;;26.15;46.90
64086;BME280;50333;47.436;21.390;2022-08-01T11:26:17;100370.31;;;26.85;45.94
64086;BME280;50333;47.436;21.390;2022-08-01T11:29:17;100370.19;;;26.67;46.01
64086;BME280;50333;47.436;21.390;2022-08-01T11:31:49;100369.44;;;26.67;45.20
64086;BME280;50333;47.436;21.390;2022-08-01T11:34:18;100372.16;;;26.74;45.77
64086;BME280;50333;47.436;21.390;2022-08-01T11:36:46;100360.41;;;26.89;45.79
64086;BME280;50333;47.436;21.390;2022-08-01T11:39:31;100363.22;;;26.59;45.90
64086;BME280;50333;47.436;21.390;2022-08-01T11:42:18;100354.44;;;26.59;44.36
64086;BME280;50333;47.436;21.390;2022-08-01T11:44:48;100361.00;;;26.65;41.99
64086;BME280;50333;47.436;21.390;2022-08-01T11:47:17;100355.41;;;26.84;42.23
64086;BME280;50333;47.436;21.390;2022-08-01T11:49:49;100354.38;;;27.00;41.42
64086;BME280;50333;47.436;21.390;2022-08-01T11:52:27;100363.16;;;26.52;42.51
64086;BME280;50333;47.436;21.390;2022-08-01T11:57:31;100356.25;;;26.47;42.65
64086;BME280;50333;47.436;21.390;2022-08-01T12:00:13;100354.25;;;26.82;43.36
64086;BME280;50333;47.436;21.390;2022-08-01T12:02:59;100365.66;;;27.34;41.80
64086;BME280;50333;47.436;21.390;2022-08-01T12:05:32;100351.69;;;27.70;40.02
64086;BME280;50333;47.436;21.390;2022-08-01T12:08:01;100362.28;;;27.44;40.92
64086;BME280;50333;47.436;21.390;2022-08-01T12:10:34;100356.16;;;27.40;39.55
64086;BME280;50333;47.436;21.390;2022-08-01T12:13:16;100348.47;;;27.35;39.04
64086;BME280;50333;47.436;21.390;2022-08-01T12:15:46;100353.72;;;27.21;37.74
64086;BME280;50333;47.436;21.390;2022-08-01T12:18:19;100348.47;;;27.35;38.14
64086;BME280;50333;47.436;21.390;2022-08-01T12:20:47;100345.59;;;27.91;37.53
64086;BME280;50333;47.436;21.390;2022-08-01T12:23:23;100345.28;;;28.10;36.74
64086;BME280;50333;47.436;21.390;2022-08-01T12:25:51;100357.44;;;27.82;37.48
64086;BME280;50333;47.436;21.390;2022-08-01T12:28:19;100352.94;;;28.01;36.24
64086;BME280;50333;47.436;21.390;2022-08-01T12:30:48;100356.75;;;28.07;36.77
64086;BME280;50333;47.436;21.390;2022-08-01T12:33:17;100350.16;;;27.83;38.39
64086;BME280;50333;47.436;21.390;2022-08-01T12:35:46;100351.00;;;28.01;39.25
64086;BME280;50333;47.436;21.390;2022-08-01T12:38:20;100351.44;;;28.25;38.24
64086;BME280;50333;47.436;21.390;2022-08-01T12:40:52;100345.66;;;28.12;37.77
64086;BME280;50333;47.436;21.390;2022-08-01T12:43:22;100337.50;;;27.65;39.46
64086;BME280;50333;47.436;21.390;2022-08-01T12:46:00;100340.88;;;27.52;39.08
64086;BME280;50333;47.436;21.390;2022-08-01T12:48:30;100343.16;;;27.46;40.56
64086;BME280;50333;47.436;21.390;2022-08-01T12:50:59;100346.59;;;27.46;40.56
64086;BME280;50333;47.436;21.390;2022-08-01T12:53:33;100347.88;;;27.81;40.04
64086;BME280;50333;47.436;21.390;2022-08-01T12:56:09;100350.88;;;27.69;39.96
64086;BME280;50333;47.436;21.390;2022-08-01T12:58:38;100356.38;;;28.05;39.54
64086;BME280;50333;47.436;21.390;2022-08-01T13:01:10;100351.00;;;27.94;39.40
64086;BME280;50333;47.436;21.390;2022-08-01T13:03:40;100350.25;;;27.97;39.40
64086;BME280;50333;47.436;21.390;2022-08-01T13:06:12;100356.38;;;27.94;39.66
64086;BME280;50333;47.436;21.390;2022-08-01T13:08:44;100356.38;;;27.94;39.67
64086;BME280;50333;47.436;21.390;2022-08-01T13:11:14;100349.41;;;27.79;40.01
64086;BME280;50333;47.436;21.390;2022-08-01T13:13:49;100350.66;;;28.10;39.70
64086;BME280;50333;47.436;21.390;2022-08-01T13:16:19;100343.66;;;27.77;40.16
64086;BME280;50333;47.436;21.390;2022-08-01T13:19:05;100345.59;;;27.83;40.12
64086;BME280;50333;47.436;21.390;2022-08-01T13:21:34;100337.62;;;28.19;39.50
64086;BME280;50333;47.436;21.390;2022-08-01T13:24:28;100347.22;;;28.17;40.04
64086;BME280;50333;47.436;21.390;2022-08-01T13:26:58;100344.16;;;28.11;39.83
64086;BME280;50333;47.436;21.390;2022-08-01T13:29:46;100340.69;;;28.11;40.74